sensor_id;sensor_type;location;lat;lon;timestamp;P1;durP1;ratioP1;P2;durP2;ratioP2
20042;SDS011;10182;52.896;6.496;2022-07-29T00:04:38;2.03;;;1.30;;
20042;SDS011;10182;52.896;6.496;2022-07-29T00:09:40;3.33;;;1.53;;
20042;SDS011;10182;52.896;6.496;2022-07-29T00:14:43;2.57;;;1.30;;
20042;SDS011;10182;52.896;6.496;2022-07-29T00:19:44;4.30;;;1.93;;
20042;SDS011;10182;52.896;6.496;2022-07-29T00:24:46;1.73;;;1.50;;
20042;SDS011;10182;52.896;6.496;2022-07-29T00:29:50;3.23;;;1.73;;
20042;SDS011;10182;52.896;6.496;2022-07-29T00:34:52;3.10;;;1.50;;
20042;SDS011;10182;52.896;6.496;2022-07-29T00:40:11;1.70;;;1.50;;
20042;SDS011;10182;52.896;6.496;2022-07-29T00:45:15;2.83;;;1.80;;
20042;SDS011;10182;52.896;6.496;2022-07-29T00:50:17;2.83;;;1.60;;
20042;SDS011;10182;52.896;6.496;2022-07-29T00:55:19;7.80;;;2.13;;
20042;SDS011;10182;52.896;6.496;2022-07-29T01:00:24;3.30;;;1.60;;
20042;SDS011;10182;52.896;6.496;2022-07-29T01:05:27;2.03;;;1.70;;
20042;SDS011;10182;52.896;6.496;2022-07-29T01:10:29;2.43;;;1.90;;
20042;SDS011;10182;52.896;6.496;2022-07-29T01:15:33;5.23;;;2.20;;
20042;SDS011;10182;52.896;6.496;2022-07-29T01:20:44;2.40;;;1.90;;
20042;SDS011;10182;52.896;6.496;2022-07-29T01:26:05;3.47;;;1.70;;
20042;SDS011;10182;52.896;6.496;2022-07-29T01:31:27;3.87;;;1.80;;
20042;SDS011;10182;52.896;6.496;2022-07-29T01:36:33;1.73;;;1.60;;
20042;SDS011;10182;52.896;6.496;2022-07-29T01:41:38;2.23;;;2.03;;
20042;SDS011;10182;52.896;6.496;2022-07-29T01:46:50;1.63;;;1.53;;
20042;SDS011;10182;52.896;6.496;2022-07-29T01:51:57;2.53;;;1.67;;
20042;SDS011;10182;52.896;6.496;2022-07-29T01:57:01;4.40;;;1.57;;
20042;SDS011;10182;52.896;6.496;2022-07-29T02:02:07;2.70;;;1.90;;
20042;SDS011;10182;52.896;6.496;2022-07-29T02:07:13;2.57;;;1.27;;
20042;SDS011;10182;52.896;6.496;2022-07-29T02:12:18;2.47;;;1.37;;
20042;SDS011;10182;52.896;6.496;2022-07-29T02:17:22;3.93;;;1.53;;
20042;SDS011;10182;52.896;6.496;2022-07-29T02:22:28;4.50;;;1.30;;
20042;SDS011;10182;52.896;6.496;2022-07-29T02:27:32;4.73;;;1.60;;
20042;SDS011;10182;52.896;6.496;2022-07-29T02:32:37;5.23;;;1.40;;
20042;SDS011;10182;52.896;6.496;2022-07-29T02:37:42;3.80;;;1.60;;
20042;SDS011;10182;52.896;6.496;2022-07-29T02:43:06;5.63;;;1.77;;
20042;SDS011;10182;52.896;6.496;2022-07-29T02:48:12;2.57;;;1.37;;
20042;SDS011;10182;52.896;6.496;2022-07-29T02:53:17;5.00;;;1.87;;
20042;SDS011;10182;52.896;6.496;2022-07-29T02:58:21;3.00;;;1.33;;
20042;SDS011;10182;52.896;6.496;2022-07-29T03:03:31;2.27;;;1.60;;
20042;SDS011;10182;52.896;6.496;2022-07-29T03:08:35;4.03;;;1.50;;
20042;SDS011;10182;52.896;6.496;2022-07-29T03:13:37;4.53;;;1.73;;
20042;SDS011;10182;52.896;6.496;2022-07-29T03:18:41;3.33;;;1.47;;
20042;SDS011;10182;52.896;6.496;2022-07-29T03:23:43;1.57;;;1.37;;
20042;SDS011;10182;52.896;6.496;2022-07-29T03:28:45;4.80;;;1.90;;
20042;SDS011;10182;52.896;6.496;2022-07-29T03:33:48;4.90;;;2.13;;
20042;SDS011;10182;52.896;6.496;2022-07-29T03:38:50;5.20;;;1.67;;
20042;SDS011;10182;52.896;6.496;2022-07-29T03:43:52;2.97;;;1.40;;
20042;SDS011;10182;52.896;6.496;2022-07-29T03:48:57;2.37;;;1.70;;
20042;SDS011;10182;52.896;6.496;2022-07-29T03:54:01;5.30;;;1.77;;
20042;SDS011;10182;52.896;6.496;2022-07-29T03:59:03;5.17;;;1.90;;
20042;SDS011;10182;52.896;6.496;2022-07-29T04:04:06;4.23;;;1.50;;
20042;SDS011;10182;52.896;6.496;2022-07-29T04:09:08;3.17;;;2.07;;
20042;SDS011;10182;52.896;6.496;2022-07-29T04:14:11;5.30;;;1.50;;
20042;SDS011;10182;52.896;6.496;2022-07-29T04:19:14;3.73;;;1.63;;
20042;SDS011;10182;52.896;6.496;2022-07-29T04:24:15;2.17;;;1.47;;
20042;SDS011;10182;52.896;6.496;2022-07-29T04:29:17;4.53;;;1.47;;
20042;SDS011;10182;52.896;6.496;2022-07-29T04:34:21;2.40;;;2.17;;
20042;SDS011;10182;52.896;6.496;2022-07-29T04:39:22;4.40;;;2.37;;
20042;SDS011;10182;52.896;6.496;2022-07-29T04:44:24;5.60;;;1.70;;
20042;SDS011;10182;52.896;6.496;2022-07-29T04:49:28;3.80;;;1.70;;
20042;SDS011;10182;52.896;6.496;2022-07-29T04:54:29;2.40;;;1.60;;
20042;SDS011;10182;52.896;6.496;2022-07-29T04:59:31;6.87;;;2.20;;
20042;SDS011;10182;52.896;6.496;2022-07-29T05:04:34;3.43;;;1.77;;
20042;SDS011;10182;52.896;6.496;2022-07-29T05:09:36;3.90;;;2.00;;
20042;SDS011;10182;52.896;6.496;2022-07-29T05:14:37;4.83;;;2.00;;
20042;SDS011;10182;52.896;6.496;2022-07-29T05:19:40;3.87;;;2.03;;
20042;SDS011;10182;52.896;6.496;2022-07-29T05:24:42;3.47;;;1.80;;
20042;SDS011;10182;52.896;6.496;2022-07-29T05:29:44;4.27;;;2.23;;
20042;SDS011;10182;52.896;6.496;2022-07-29T05:34:47;4.73;;;2.13;;
20042;SDS011;10182;52.896;6.496;2022-07-29T05:39:48;5.80;;;2.40;;
20042;SDS011;10182;52.896;6.496;2022-07-29T05:44:50;3.57;;;2.13;;
20042;SDS011;10182;52.896;6.496;2022-07-29T05:49:53;2.87;;;2.00;;
20042;SDS011;10182;52.896;6.496;2022-07-29T05:54:55;2.47;;;2.00;;
20042;SDS011;10182;52.896;6.496;2022-07-29T05:59:56;3.30;;;2.30;;
20042;SDS011;10182;52.896;6.496;2022-07-29T06:05:00;3.13;;;1.80;;
20042;SDS011;10182;52.896;6.496;2022-07-29T06:10:02;3.50;;;1.80;;
20042;SDS011;10182;52.896;6.496;2022-07-29T06:15:04;4.47;;;2.10;;
20042;SDS011;10182;52.896;6.496;2022-07-29T06:20:08;2.60;;;2.40;;
20042;SDS011;10182;52.896;6.496;2022-07-29T06:25:11;4.83;;;2.27;;
20042;SDS011;10182;52.896;6.496;2022-07-29T06:30:13;4.43;;;2.07;;
20042;SDS011;10182;52.896;6.496;2022-07-29T06:35:16;2.80;;;2.23;;
20042;SDS011;10182;52.896;6.496;2022-07-29T06:40:18;6.30;;;2.30;;
20042;SDS011;10182;52.896;6.496;2022-07-29T06:45:37;6.03;;;2.47;;
20042;SDS011;10182;52.896;6.496;2022-07-29T06:50:42;6.17;;;2.30;;
20042;SDS011;10182;52.896;6.496;2022-07-29T06:55:44;4.40;;;2.27;;
20042;SDS011;10182;52.896;6.496;2022-07-29T07:00:45;3.83;;;1.87;;
20042;SDS011;10182;52.896;6.496;2022-07-29T07:05:49;7.27;;;2.33;;
20042;SDS011;10182;52.896;6.496;2022-07-29T07:10:51;3.03;;;2.03;;
20042;SDS011;10182;52.896;6.496;2022-07-29T07:15:53;4.30;;;2.20;;
20042;SDS011;10182;52.896;6.496;2022-07-29T07:20:57;4.43;;;2.20;;
20042;SDS011;10182;52.896;6.496;2022-07-29T07:25:59;5.67;;;2.27;;
20042;SDS011;10182;52.896;6.496;2022-07-29T07:31:01;6.67;;;2.70;;
20042;SDS011;10182;52.896;6.496;2022-07-29T07:36:04;5.53;;;2.37;;
20042;SDS011;10182;52.896;6.496;2022-07-29T07:41:06;4.80;;;2.37;;
20042;SDS011;10182;52.896;6.496;2022-07-29T07:46:08;3.07;;;2.00;;
20042;SDS011;10182;52.896;6.496;2022-07-29T07:51:11;4.37;;;2.40;;
20042;SDS011;10182;52.896;6.496;2022-07-29T07:56:13;5.87;;;2.40;;
20042;SDS011;10182;52.896;6.496;2022-07-29T08:01:16;9.40;;;2.30;;
20042;SDS011;10182;52.896;6.496;2022-07-29T08:06:21;3.13;;;1.73;;
20042;SDS011;10182;52.896;6.496;2022-07-29T08:11:23;5.23;;;2.40;;
20042;SDS011;10182;52.896;6.496;2022-07-29T08:16:25;5.73;;;2.10;;
20042;SDS011;10182;52.896;6.496;2022-07-29T08:21:28;5.20;;;2.03;;
20042;SDS011;10182;52.896;6.496;2022-07-29T08:26:30;7.50;;;2.03;;
20042;SDS011;10182;52.896;6.496;2022-07-29T08:31:31;6.93;;;2.13;;
20042;SDS011;10182;52.896;6.496;2022-07-29T08:36:34;4.67;;;2.10;;
20042;SDS011;10182;52.896;6.496;2022-07-29T08:41:36;4.97;;;2.80;;
20042;SDS011;10182;52.896;6.496;2022-07-29T08:46:38;4.90;;;2.60;;
20042;SDS011;10182;52.896;6.496;2022-07-29T08:51:41;5.67;;;2.40;;
20042;SDS011;10182;52.896;6.496;2022-07-29T08:56:45;4.47;;;2.70;;
20042;SDS011;10182;52.896;6.496;2022-07-29T09:01:50;6.67;;;2.60;;
20042;SDS011;10182;52.896;6.496;2022-07-29T09:06:55;4.23;;;2.50;;
20042;SDS011;10182;52.896;6.496;2022-07-29T09:12:00;6.00;;;2.93;;
20042;SDS011;10182;52.896;6.496;2022-07-29T09:17:04;7.23;;;2.40;;
20042;SDS011;10182;52.896;6.496;2022-07-29T09:22:07;6.07;;;2.30;;
20042;SDS011;10182;52.896;6.496;2022-07-29T09:27:11;4.43;;;2.33;;
20042;SDS011;10182;52.896;6.496;2022-07-29T09:32:22;4.50;;;2.80;;
20042;SDS011;10182;52.896;6.496;2022-07-29T09:37:28;6.13;;;2.77;;
20042;SDS011;10182;52.896;6.496;2022-07-29T09:42:30;7.70;;;3.03;;
20042;SDS011;10182;52.896;6.496;2022-07-29T09:47:40;7.73;;;2.97;;
20042;SDS011;10182;52.896;6.496;2022-07-29T09:52:46;4.43;;;2.60;;
20042;SDS011;10182;52.896;6.496;2022-07-29T09:57:49;11.43;;;3.50;;
20042;SDS011;10182;52.896;6.496;2022-07-29T10:02:51;5.77;;;2.83;;
20042;SDS011;10182;52.896;6.496;2022-07-29T10:07:54;6.20;;;2.60;;
20042;SDS011;10182;52.896;6.496;2022-07-29T10:12:58;2.43;;;2.23;;
20042;SDS011;10182;52.896;6.496;2022-07-29T10:18:02;6.50;;;3.10;;
20042;SDS011;10182;52.896;6.496;2022-07-29T10:23:05;6.33;;;2.97;;
20042;SDS011;10182;52.896;6.496;2022-07-29T10:28:07;12.40;;;8.37;;
20042;SDS011;10182;52.896;6.496;2022-07-29T10:33:12;5.40;;;3.07;;
20042;SDS011;10182;52.896;6.496;2022-07-29T10:38:34;5.03;;;3.20;;
20042;SDS011;10182;52.896;6.496;2022-07-29T10:43:45;10.60;;;3.77;;
20042;SDS011;10182;52.896;6.496;2022-07-29T10:49:07;5.37;;;3.37;;
20042;SDS011;10182;52.896;6.496;2022-07-29T10:54:12;5.50;;;3.20;;
20042;SDS011;10182;52.896;6.496;2022-07-29T10:59:25;4.70;;;3.30;;
20042;SDS011;10182;52.896;6.496;2022-07-29T11:15:22;7.23;;;3.00;;
20042;SDS011;10182;52.896;6.496;2022-07-29T11:20:31;4.07;;;2.20;;
20042;SDS011;10182;52.896;6.496;2022-07-29T11:25:35;6.97;;;2.33;;
20042;SDS011;10182;52.896;6.496;2022-07-29T11:30:49;6.83;;;2.87;;
20042;SDS011;10182;52.896;6.496;2022-07-29T11:36:06;6.17;;;3.60;;
20042;SDS011;10182;52.896;6.496;2022-07-29T11:41:23;9.13;;;4.00;;
20042;SDS011;10182;52.896;6.496;2022-07-29T11:46:42;3.90;;;2.27;;
20042;SDS011;10182;52.896;6.496;2022-07-29T11:51:50;3.70;;;2.13;;
20042;SDS011;10182;52.896;6.496;2022-07-29T11:56:53;4.63;;;2.30;;
20042;SDS011;10182;52.896;6.496;2022-07-29T12:01:55;5.17;;;2.63;;
20042;SDS011;10182;52.896;6.496;2022-07-29T12:06:58;4.07;;;2.33;;
20042;SDS011;10182;52.896;6.496;2022-07-29T12:12:01;5.23;;;2.80;;
20042;SDS011;10182;52.896;6.496;2022-07-29T12:17:02;4.63;;;2.57;;
20042;SDS011;10182;52.896;6.496;2022-07-29T12:22:04;5.13;;;2.30;;
20042;SDS011;10182;52.896;6.496;2022-07-29T12:27:07;4.17;;;2.67;;
20042;SDS011;10182;52.896;6.496;2022-07-29T12:32:09;3.57;;;2.57;;
20042;SDS011;10182;52.896;6.496;2022-07-29T12:37:11;6.20;;;2.77;;
20042;SDS011;10182;52.896;6.496;2022-07-29T12:42:14;3.70;;;1.80;;
20042;SDS011;10182;52.896;6.496;2022-07-29T12:47:18;4.93;;;2.77;;
20042;SDS011;10182;52.896;6.496;2022-07-29T12:52:27;6.87;;;2.40;;
20042;SDS011;10182;52.896;6.496;2022-07-29T12:57:32;5.07;;;2.20;;
20042;SDS011;10182;52.896;6.496;2022-07-29T13:02:46;3.00;;;1.77;;
20042;SDS011;10182;52.896;6.496;2022-07-29T13:07:56;9.40;;;2.83;;
20042;SDS011;10182;52.896;6.496;2022-07-29T13:13:13;4.23;;;2.60;;
20042;SDS011;10182;52.896;6.496;2022-07-29T13:18:27;4.90;;;2.20;;
20042;SDS011;10182;52.896;6.496;2022-07-29T13:23:30;3.93;;;1.87;;
20042;SDS011;10182;52.896;6.496;2022-07-29T13:28:33;8.57;;;2.80;;
20042;SDS011;10182;52.896;6.496;2022-07-29T13:33:35;5.10;;;2.10;;
20042;SDS011;10182;52.896;6.496;2022-07-29T13:38:36;5.77;;;2.50;;
20042;SDS011;10182;52.896;6.496;2022-07-29T13:43:40;6.97;;;2.10;;
20042;SDS011;10182;52.896;6.496;2022-07-29T13:48:41;8.27;;;2.40;;
20042;SDS011;10182;52.896;6.496;2022-07-29T13:53:43;5.27;;;2.10;;
20042;SDS011;10182;52.896;6.496;2022-07-29T13:58:46;5.00;;;2.33;;
20042;SDS011;10182;52.896;6.496;2022-07-29T14:03:48;4.40;;;1.87;;
20042;SDS011;10182;52.896;6.496;2022-07-29T14:08:49;5.83;;;2.20;;
20042;SDS011;10182;52.896;6.496;2022-07-29T14:13:52;8.40;;;2.23;;
20042;SDS011;10182;52.896;6.496;2022-07-29T14:18:54;3.30;;;1.87;;
20042;SDS011;10182;52.896;6.496;2022-07-29T14:23:56;2.93;;;1.87;;
20042;SDS011;10182;52.896;6.496;2022-07-29T14:28:58;2.93;;;2.00;;
20042;SDS011;10182;52.896;6.496;2022-07-29T14:34:00;5.77;;;2.23;;
20042;SDS011;10182;52.896;6.496;2022-07-29T14:39:02;4.17;;;1.77;;
20042;SDS011;10182;52.896;6.496;2022-07-29T14:44:06;10.70;;;2.57;;
20042;SDS011;10182;52.896;6.496;2022-07-29T14:49:08;6.20;;;2.00;;
20042;SDS011;10182;52.896;6.496;2022-07-29T14:54:09;6.13;;;2.17;;
20042;SDS011;10182;52.896;6.496;2022-07-29T14:59:12;5.63;;;1.73;;
20042;SDS011;10182;52.896;6.496;2022-07-29T15:04:14;4.83;;;2.20;;
20042;SDS011;10182;52.896;6.496;2022-07-29T15:09:16;5.50;;;1.83;;
20042;SDS011;10182;52.896;6.496;2022-07-29T15:14:19;5.80;;;2.17;;
20042;SDS011;10182;52.896;6.496;2022-07-29T15:19:21;4.77;;;1.83;;
20042;SDS011;10182;52.896;6.496;2022-07-29T15:24:22;3.93;;;1.73;;
20042;SDS011;10182;52.896;6.496;2022-07-29T15:29:25;4.60;;;1.97;;
20042;SDS011;10182;52.896;6.496;2022-07-29T15:34:27;4.07;;;1.90;;
20042;SDS011;10182;52.896;6.496;2022-07-29T15:39:29;6.40;;;1.77;;
20042;SDS011;10182;52.896;6.496;2022-07-29T15:44:32;6.93;;;2.57;;
20042;SDS011;10182;52.896;6.496;2022-07-29T15:49:35;3.03;;;1.87;;
20042;SDS011;10182;52.896;6.496;2022-07-29T15:54:39;3.50;;;2.17;;
20042;SDS011;10182;52.896;6.496;2022-07-29T15:59:42;2.73;;;2.10;;
20042;SDS011;10182;52.896;6.496;2022-07-29T16:04:44;7.70;;;2.20;;
20042;SDS011;10182;52.896;6.496;2022-07-29T16:09:46;6.17;;;1.73;;
20042;SDS011;10182;52.896;6.496;2022-07-29T16:14:49;3.90;;;1.67;;
20042;SDS011;10182;52.896;6.496;2022-07-29T16:19:51;5.37;;;2.60;;
20042;SDS011;10182;52.896;6.496;2022-07-29T16:24:53;3.73;;;1.93;;
20042;SDS011;10182;52.896;6.496;2022-07-29T16:29:56;3.13;;;1.80;;
20042;SDS011;10182;52.896;6.496;2022-07-29T16:34:58;5.13;;;1.90;;
20042;SDS011;10182;52.896;6.496;2022-07-29T16:40:01;3.53;;;2.37;;
20042;SDS011;10182;52.896;6.496;2022-07-29T16:45:05;4.13;;;1.90;;
20042;SDS011;10182;52.896;6.496;2022-07-29T16:50:08;2.50;;;1.73;;
20042;SDS011;10182;52.896;6.496;2022-07-29T16:55:10;4.73;;;1.80;;
20042;SDS011;10182;52.896;6.496;2022-07-29T17:00:13;3.97;;;2.10;;
20042;SDS011;10182;52.896;6.496;2022-07-29T17:05:16;4.27;;;2.27;;
20042;SDS011;10182;52.896;6.496;2022-07-29T17:10:18;2.50;;;1.70;;
20042;SDS011;10182;52.896;6.496;2022-07-29T17:15:21;3.70;;;1.87;;
20042;SDS011;10182;52.896;6.496;2022-07-29T17:20:23;4.23;;;1.80;;
20042;SDS011;10182;52.896;6.496;2022-07-29T17:25:25;5.93;;;2.20;;
20042;SDS011;10182;52.896;6.496;2022-07-29T17:30:28;4.10;;;1.80;;
20042;SDS011;10182;52.896;6.496;2022-07-29T17:35:30;5.00;;;1.80;;
20042;SDS011;10182;52.896;6.496;2022-07-29T17:40:49;6.40;;;2.07;;
20042;SDS011;10182;52.896;6.496;2022-07-29T17:45:52;5.30;;;1.90;;
20042;SDS011;10182;52.896;6.496;2022-07-29T17:50:54;2.87;;;2.00;;
20042;SDS011;10182;52.896;6.496;2022-07-29T17:55:57;5.07;;;1.90;;
20042;SDS011;10182;52.896;6.496;2022-07-29T18:01:00;4.67;;;1.63;;
20042;SDS011;10182;52.896;6.496;2022-07-29T18:06:02;24.17;;;3.87;;
20042;SDS011;10182;52.896;6.496;2022-07-29T18:11:03;3.00;;;1.67;;
20042;SDS011;10182;52.896;6.496;2022-07-29T18:16:07;4.23;;;1.87;;
20042;SDS011;10182;52.896;6.496;2022-07-29T18:21:08;5.10;;;1.90;;
20042;SDS011;10182;52.896;6.496;2022-07-29T18:26:11;5.43;;;2.70;;
20042;SDS011;10182;52.896;6.496;2022-07-29T18:31:16;5.73;;;3.20;;
20042;SDS011;10182;52.896;6.496;2022-07-29T18:36:18;6.93;;;3.07;;
20042;SDS011;10182;52.896;6.496;2022-07-29T18:41:19;10.33;;;3.40;;
20042;SDS011;10182;52.896;6.496;2022-07-29T18:46:22;12.10;;;3.20;;
20042;SDS011;10182;52.896;6.496;2022-07-29T18:51:24;5.87;;;2.80;;
20042;SDS011;10182;52.896;6.496;2022-07-29T18:56:26;8.13;;;2.70;;
20042;SDS011;10182;52.896;6.496;2022-07-29T19:01:30;8.10;;;2.70;;
20042;SDS011;10182;52.896;6.496;2022-07-29T19:06:32;4.67;;;2.07;;
20042;SDS011;10182;52.896;6.496;2022-07-29T19:11:34;6.17;;;3.00;;
20042;SDS011;10182;52.896;6.496;2022-07-29T19:16:37;6.10;;;2.60;;
20042;SDS011;10182;52.896;6.496;2022-07-29T19:21:38;29.47;;;3.70;;
20042;SDS011;10182;52.896;6.496;2022-07-29T19:26:41;24.53;;;4.77;;
20042;SDS011;10182;52.896;6.496;2022-07-29T19:31:47;194.57;;;14.60;;
20042;SDS011;10182;52.896;6.496;2022-07-29T19:36:48;6.80;;;3.13;;
20042;SDS011;10182;52.896;6.496;2022-07-29T19:41:50;7.97;;;2.97;;
20042;SDS011;10182;52.896;6.496;2022-07-29T19:46:55;7.97;;;3.30;;
20042;SDS011;10182;52.896;6.496;2022-07-29T19:51:59;4.73;;;3.00;;
20042;SDS011;10182;52.896;6.496;2022-07-29T19:57:00;6.53;;;2.77;;
20042;SDS011;10182;52.896;6.496;2022-07-29T20:02:03;7.83;;;3.53;;
20042;SDS011;10182;52.896;6.496;2022-07-29T20:07:06;3.93;;;3.00;;
20042;SDS011;10182;52.896;6.496;2022-07-29T20:12:08;7.33;;;3.20;;
20042;SDS011;10182;52.896;6.496;2022-07-29T20:17:12;6.97;;;3.43;;
20042;SDS011;10182;52.896;6.496;2022-07-29T20:22:14;7.53;;;3.27;;
20042;SDS011;10182;52.896;6.496;2022-07-29T20:27:16;5.90;;;3.60;;
20042;SDS011;10182;52.896;6.496;2022-07-29T20:32:19;8.67;;;3.50;;
20042;SDS011;10182;52.896;6.496;2022-07-29T20:37:21;5.47;;;3.23;;
20042;SDS011;10182;52.896;6.496;2022-07-29T20:42:23;7.40;;;3.57;;
20042;SDS011;10182;52.896;6.496;2022-07-29T20:47:26;6.37;;;3.63;;
20042;SDS011;10182;52.896;6.496;2022-07-29T20:52:28;6.80;;;3.50;;
20042;SDS011;10182;52.896;6.496;2022-07-29T20:57:30;5.97;;;3.53;;
20042;SDS011;10182;52.896;6.496;2022-07-29T21:02:34;8.03;;;3.70;;
20042;SDS011;10182;52.896;6.496;2022-07-29T21:07:36;8.43;;;4.33;;
20042;SDS011;10182;52.896;6.496;2022-07-29T21:12:37;7.47;;;4.40;;
20042;SDS011;10182;52.896;6.496;2022-07-29T21:17:40;6.37;;;3.73;;
20042;SDS011;10182;52.896;6.496;2022-07-29T21:22:46;8.13;;;4.30;;
20042;SDS011;10182;52.896;6.496;2022-07-29T21:27:48;5.83;;;3.93;;
20042;SDS011;10182;52.896;6.496;2022-07-29T21:33:09;6.43;;;4.40;;
20042;SDS011;10182;52.896;6.496;2022-07-29T21:38:10;6.70;;;4.50;;
20042;SDS011;10182;52.896;6.496;2022-07-29T21:43:15;8.93;;;4.60;;
20042;SDS011;10182;52.896;6.496;2022-07-29T21:48:19;7.03;;;4.37;;
20042;SDS011;10182;52.896;6.496;2022-07-29T21:53:22;6.23;;;4.37;;
20042;SDS011;10182;52.896;6.496;2022-07-29T21:58:23;8.03;;;4.63;;
20042;SDS011;10182;52.896;6.496;2022-07-29T22:03:27;4.83;;;4.13;;
20042;SDS011;10182;52.896;6.496;2022-07-29T22:08:28;7.43;;;4.90;;
20042;SDS011;10182;52.896;6.496;2022-07-29T22:13:30;8.13;;;4.80;;
20042;SDS011;10182;52.896;6.496;2022-07-29T22:18:33;6.17;;;4.60;;
20042;SDS011;10182;52.896;6.496;2022-07-29T22:23:35;6.33;;;4.47;;
20042;SDS011;10182;52.896;6.496;2022-07-29T22:28:36;7.87;;;5.33;;
20042;SDS011;10182;52.896;6.496;2022-07-29T22:33:39;5.83;;;4.90;;
20042;SDS011;10182;52.896;6.496;2022-07-29T22:38:41;9.47;;;4.90;;
20042;SDS011;10182;52.896;6.496;2022-07-29T22:43:43;6.57;;;5.17;;
20042;SDS011;10182;52.896;6.496;2022-07-29T22:48:47;5.87;;;5.10;;
20042;SDS011;10182;52.896;6.496;2022-07-29T22:53:48;8.10;;;5.43;;
20042;SDS011;10182;52.896;6.496;2022-07-29T22:58:50;7.27;;;5.40;;
20042;SDS011;10182;52.896;6.496;2022-07-29T23:03:55;6.13;;;5.17;;
20042;SDS011;10182;52.896;6.496;2022-07-29T23:08:57;6.97;;;5.60;;
20042;SDS011;10182;52.896;6.496;2022-07-29T23:13:59;7.97;;;5.63;;
20042;SDS011;10182;52.896;6.496;2022-07-29T23:19:02;10.30;;;5.43;;
20042;SDS011;10182;52.896;6.496;2022-07-29T23:24:04;10.47;;;5.40;;
20042;SDS011;10182;52.896;6.496;2022-07-29T23:29:06;5.77;;;5.17;;
20042;SDS011;10182;52.896;6.496;2022-07-29T23:34:09;8.83;;;6.03;;
20042;SDS011;10182;52.896;6.496;2022-07-29T23:39:10;9.70;;;6.00;;
20042;SDS011;10182;52.896;6.496;2022-07-29T23:44:12;7.93;;;5.20;;
20042;SDS011;10182;52.896;6.496;2022-07-29T23:49:15;9.07;;;5.57;;
20042;SDS011;10182;52.896;6.496;2022-07-29T23:54:17;6.80;;;5.77;;
20042;SDS011;10182;52.896;6.496;2022-07-29T23:59:18;6.43;;;4.97;;
